Alfarata, Pennsylvania
Current Conditions -  °F | °C
As of 12:53 PM on Friday 28 Nov 2014 (Local Time) from KUNV Reporting Station
Broken Clouds Broken Clouds  
Wind Chill: 17°   Ceiling: 4100
Heat Index: 28°   Visibility: 10mi
Dew Point: 14°   Wind: 14mph
Humidity: 55%   Direction: 280°W
Pressure: 30.21"   Gusts: NA
Location:  40.7125°N, 77.3707°W
Report Text: KUNV 281753Z 28012KT 10SM BKN041 M02/M10 A3021
Loading
Personal Weather Stations






























Interactive Weather Map New forecast layout! Learn more

10-Day Weather Forecast

Advertisements
Track Severe Weather on mobile